Time;durP1;ratioP1;P1;durP2;ratioP2;P2;SDS_P1;SDS_P2;PMS_P1;PMS_P2;Temp;Humidity;BMP_temperature;BMP_pressure;BME280_temperature;BME280_humidity;BME280_pressure;Samples;Min_cycle;Max_cycle;Signal;HPM_P1;HPM_P2
2022/04/18 14:35:28;;;;;;;;;;;;;;;14.75;35.79;98301.38;3185146;22;886949;-80
2022/04/18 14:36:46;;;;;;;;;;;;;;;15.06;34.70;98298.09;3222451;23;19958;-80
2022/04/18 14:38:05;;;;;;;;;;;;;;;14.71;33.77;98297.97;3223134;23;20238;-92
2022/04/18 14:39:20;;;;;;;;;;;;;;;14.62;35.88;98304.53;3222759;22;19958;-80
2022/04/18 14:40:36;;;;;;;;;;;;;;;14.33;35.24;98292.72;3222089;22;20524;-80
2022/04/18 14:41:51;;;;;;;;;;;;;;;14.26;35.87;98300.91;3221910;22;19923;-80
2022/04/18 14:43:07;;;;;;;;;;;;;;;14.33;36.15;98298.84;3222037;22;19926;-80
2022/04/18 14:44:22;;;;;;;;;;;;;;;14.64;34.98;98291.28;3222602;22;19990;-80
2022/04/18 14:45:37;;;;;;;;;;;;;;;15.10;34.17;98299.66;3221398;23;19985;-80
2022/04/18 14:46:53;;;;;;;;;;;;;;;15.23;32.67;98291.16;3222698;22;20313;-80
2022/04/18 14:48:08;;;;;;;;;;;;;;;16.12;31.04;98284.03;3222163;22;19920;-79
2022/04/18 14:49:24;;;;;;;;;;;;;;;16.29;31.30;98284.00;3222373;22;19933;-80
2022/04/18 14:50:39;;;;;;;;;;;;;;;16.34;32.15;98294.28;3222047;22;19951;-82
2022/04/18 14:51:55;;;;;;;;;;;;;;;16.80;31.14;98283.84;3222003;22;19923;-81
2022/04/18 14:53:11;;;;;;;;;;;;;;;16.58;31.29;98283.31;3222393;22;20364;-81
2022/04/18 14:54:27;;;;;;;;;;;;;;;17.52;29.78;98274.50;3222118;22;19924;-80
2022/04/18 14:55:42;;;;;;;;;;;;;;;18.09;30.45;98269.38;3222377;22;19923;-80
2022/04/18 14:56:58;;;;;;;;;;;;;;;18.12;30.31;98275.34;3222402;22;19962;-80
2022/04/18 14:58:15;;;;;;;;;;;;;;;18.30;28.64;98275.16;3222466;22;20362;-80
2022/04/18 14:59:31;;;;;;;;;;;;;;;18.10;28.82;98271.94;3222018;22;19931;-86
2022/04/18 15:00:47;;;;;;;;;;;;;;;18.35;28.08;98265.13;3222345;22;19947;-79
2022/04/18 15:02:02;;;;;;;;;;;;;;;18.92;27.52;98273.91;3221299;22;19926;-81
2022/04/18 15:03:18;;;;;;;;;;;;;;;18.40;25.96;98273.63;3222030;22;19927;-80
2022/04/18 15:04:33;;;;;;;;;;;;;;;18.35;27.33;98273.06;3222072;22;19923;-80
2022/04/18 15:05:48;;;;;;;;;;;;;;;19.10;25.78;98266.56;3222156;22;19928;-80
2022/04/18 15:07:04;;;;;;;;;;;;;;;19.47;26.31;98268.56;3222252;22;19919;-79
2022/04/18 15:08:19;;;;;;;;;;;;;;;19.70;25.26;98261.69;3221141;23;19923;-80
2022/04/18 15:09:35;;;;;;;;;;;;;;;19.31;26.17;98269.59;3221849;23;20026;-83
2022/04/18 15:10:53;;;;;;;;;;;;;;;18.30;27.02;98256.59;3221685;23;19923;-81
2022/04/18 15:12:09;;;;;;;;;;;;;;;18.45;26.41;98257.44;3221746;22;19919;-85
2022/04/18 15:13:24;;;;;;;;;;;;;;;18.25;27.28;98250.75;3220605;22;20412;-80
2022/04/18 15:14:40;;;;;;;;;;;;;;;18.04;25.86;98249.34;3222045;23;19974;-78
2022/04/18 15:15:55;;;;;;;;;;;;;;;17.82;26.39;98256.88;3222193;22;19931;-79
2022/04/18 15:17:11;;;;;;;;;;;;;;;18.26;27.37;98250.66;3221730;22;20252;-79
2022/04/18 15:18:26;;;;;;;;;;;;;;;18.08;25.74;98250.00;3221929;22;19923;-79
2022/04/18 15:19:42;;;;;;;;;;;;;;;18.75;25.21;98251.97;3221976;22;19994;-79
2022/04/18 15:20:57;;;;;;;;;;;;;;;18.12;25.38;98254.16;3220605;23;19935;-81
2022/04/18 15:22:13;;;;;;;;;;;;;;;17.73;27.84;98258.25;3221565;23;19923;-79
2022/04/18 15:23:28;;;;;;;;;;;;;;;17.86;27.67;98243.34;3221522;22;19923;-80
2022/04/18 15:24:47;;;;;;;;;;;;;;;18.01;26.93;98257.44;3222265;22;19998;-79
2022/04/18 15:26:02;;;;;;;;;;;;;;;17.93;27.36;98244.69;3221752;22;19950;-80
2022/04/18 15:27:18;;;;;;;;;;;;;;;18.72;27.09;98240.72;3222030;22;19928;-80
2022/04/18 15:28:34;;;;;;;;;;;;;;;18.20;26.68;98246.59;3222455;22;19923;-79
2022/04/18 15:32:05;;;;;;;;;;;;;;;17.66;28.32;98241.91;3222389;22;19983;-79
2022/04/18 15:32:59;;;;;;;;;;;;;;;16.47;30.41;98255.69;3226715;23;19923;-80
2022/04/18 15:34:14;;;;;;;;;;;;;;;15.70;32.31;98257.97;3221945;22;19959;-78
2022/04/18 15:35:30;;;;;;;;;;;;;;;15.10;33.13;98261.88;3221502;22;19930;-83
2022/04/18 15:36:45;;;;;;;;;;;;;;;15.03;33.48;98269.25;3225836;23;19923;-84
2022/04/18 15:38:01;;;;;;;;;;;;;;;15.99;31.50;98260.06;3221387;23;19930;-80
2022/04/18 15:39:16;;;;;;;;;;;;;;;16.99;30.16;98256.38;3221713;23;19924;-81
2022/04/18 15:40:33;;;;;;;;;;;;;;;17.46;29.94;98251.03;3222024;23;19999;-81
2022/04/18 15:41:48;;;;;;;;;;;;;;;17.63;28.38;98244.75;3222096;22;19959;-80
2022/04/18 15:43:04;;;;;;;;;;;;;;;18.11;27.79;98249.81;3222207;23;19981;-80
2022/04/18 15:44:20;;;;;;;;;;;;;;;18.23;27.45;98244.69;3221807;22;20002;-81
2022/04/18 15:45:36;;;;;;;;;;;;;;;18.94;26.64;98245.47;3221341;22;20018;-81
2022/04/18 15:46:51;;;;;;;;;;;;;;;19.83;25.59;98244.91;3221710;22;19930;-81
2022/04/18 15:48:07;;;;;;;;;;;;;;;19.14;26.43;98246.81;3222004;23;20192;-81
2022/04/18 15:49:23;;;;;;;;;;;;;;;19.45;25.78;98243.94;3221193;22;19927;-82
2022/04/18 15:50:39;;;;;;;;;;;;;;;19.68;25.05;98238.81;3221841;22;20649;-81
2022/04/18 15:51:55;;;;;;;;;;;;;;;19.23;25.23;98244.53;3221591;22;19927;-79
2022/04/18 15:53:10;;;;;;;;;;;;;;;18.67;26.61;98238.34;3221717;22;19923;-82
2022/04/18 15:54:26;;;;;;;;;;;;;;;18.35;26.66;98241.28;3221538;22;19945;-78
2022/04/18 15:55:42;;;;;;;;;;;;;;;19.07;25.50;98234.94;3221871;23;19927;-79
2022/04/18 15:56:57;;;;;;;;;;;;;;;18.76;25.38;98237.75;3221881;22;19923;-78
2022/04/18 15:58:20;;;;;;;;;;;;;;;19.36;25.38;98245.41;3221855;23;20022;-79
2022/04/18 15:59:35;;;;;;;;;;;;;;;19.54;25.39;98243.28;3220914;23;20390;-80
2022/04/18 16:00:51;;;;;;;;;;;;;;;18.76;26.16;98243.06;3221611;23;19923;-81
2022/04/18 16:02:09;;;;;;;;;;;;;;;18.33;26.86;98243.16;3219721;22;20477;-80
2022/04/18 16:03:25;;;;;;;;;;;;;;;18.38;26.54;98240.25;3221857;22;19924;-81
2022/04/18 16:04:40;;;;;;;;;;;;;;;17.86;27.03;98239.84;3222176;23;19919;-80
2022/04/18 16:05:55;;;;;;;;;;;;;;;17.79;27.15;98237.56;3221906;23;19927;-80
2022/04/18 16:07:11;;;;;;;;;;;;;;;16.49;29.26;98245.03;3221659;23;19991;-79
2022/04/18 16:08:27;;;;;;;;;;;;;;;15.74;30.21;98237.56;3221796;22;20331;-85
2022/04/18 16:09:42;;;;;;;;;;;;;;;15.89;30.92;98243.84;3221980;22;19923;-81
2022/04/18 16:10:58;;;;;;;;;;;;;;;16.15;30.43;98236.34;3222338;23;19950;-82
2022/04/18 16:12:13;;;;;;;;;;;;;;;16.24;29.76;98247.25;3221710;23;19924;-83
2022/04/18 16:13:29;;;;;;;;;;;;;;;16.26;29.29;98239.22;3222206;22;19927;-80
2022/04/18 16:14:44;;;;;;;;;;;;;;;16.83;28.28;98243.13;3221458;23;19938;-80
2022/04/18 16:16:01;;;;;;;;;;;;;;;16.54;28.43;98236.88;3221914;23;20353;-82
2022/04/18 16:17:16;;;;;;;;;;;;;;;16.79;28.53;98237.19;3222240;22;19935;-82
2022/04/18 16:18:33;;;;;;;;;;;;;;;16.55;28.12;98247.34;3222081;23;20246;-81
2022/04/18 16:19:50;;;;;;;;;;;;;;;16.22;29.55;98250.91;3221923;22;19928;-81
2022/04/18 16:21:05;;;;;;;;;;;;;;;16.12;30.30;98247.91;3222311;22;19924;-80
2022/04/18 16:22:21;;;;;;;;;;;;;;;16.82;27.90;98244.06;3221719;23;19924;-80
2022/04/18 16:23:37;;;;;;;;;;;;;;;17.42;27.46;98245.09;3221775;22;19923;-82
2022/04/18 16:24:53;;;;;;;;;;;;;;;17.76;27.79;98239.56;3222025;22;19950;-81
2022/04/18 16:26:08;;;;;;;;;;;;;;;17.82;27.40;98235.69;3221829;22;19927;-82
2022/04/18 16:27:24;;;;;;;;;;;;;;;17.77;26.69;98233.31;3220247;23;20390;-84
2022/04/18 16:28:39;;;;;;;;;;;;;;;17.39;27.23;98231.19;3221747;23;19923;-82
2022/04/18 16:31:51;;;;;;;;;;;;;;;17.05;28.12;98239.31;3221486;23;19928;-86
2022/04/18 16:33:06;;;;;;;;;;;;;;;17.12;27.68;98238.03;3221934;22;19926;-87
2022/04/18 16:34:23;;;;;;;;;;;;;;;17.62;27.43;98235.97;3222188;23;20354;-81
2022/04/18 16:35:38;;;;;;;;;;;;;;;17.68;27.05;98229.44;3221721;22;19931;-80
2022/04/18 16:36:55;;;;;;;;;;;;;;;17.36;27.25;98232.22;3222001;23;19927;-81
2022/04/18 16:38:10;;;;;;;;;;;;;;;17.54;27.27;98234.72;3221116;23;19923;-80
2022/04/18 16:39:26;;;;;;;;;;;;;;;18.18;27.27;98223.78;3221774;23;19923;-85
2022/04/18 16:45:48;;;;;;;;;;;;;;;18.31;26.90;98235.31;3222036;22;19924;-80
2022/04/18 16:46:59;;;;;;;;;;;;;;;17.89;26.23;98227.28;3227903;23;19928;-83
2022/04/18 16:48:15;;;;;;;;;;;;;;;17.34;27.34;98229.66;3223114;23;19924;-82
2022/04/18 16:49:30;;;;;;;;;;;;;;;16.78;27.60;98230.22;3223137;22;20402;-81
2022/04/18 16:50:46;;;;;;;;;;;;;;;16.99;27.26;98222.00;3223116;23;19931;-80
2022/04/18 16:52:02;;;;;;;;;;;;;;;16.46;28.37;98224.91;3221933;23;19955;-80
2022/04/18 16:53:18;;;;;;;;;;;;;;;16.43;28.73;98235.66;3222182;23;20270;-80
2022/04/18 16:54:33;;;;;;;;;;;;;;;16.01;29.34;98226.50;3222813;22;20288;-80
2022/04/18 16:55:49;;;;;;;;;;;;;;;16.06;28.99;98229.75;3222901;22;19931;-80
2022/04/18 16:57:04;;;;;;;;;;;;;;;16.24;29.21;98231.41;3222887;22;19924;-79
2022/04/18 16:58:20;;;;;;;;;;;;;;;16.00;29.47;98228.31;3221816;22;19931;-80
2022/04/18 16:59:35;;;;;;;;;;;;;;;15.94;29.36;98232.13;3222892;22;19924;-79
2022/04/18 17:00:51;;;;;;;;;;;;;;;15.89;29.72;98230.66;3222818;23;19948;-79
2022/04/18 17:02:08;;;;;;;;;;;;;;;16.33;29.19;98232.69;3223065;22;19931;-80
2022/04/18 17:03:24;;;;;;;;;;;;;;;16.80;28.84;98227.44;3222614;22;19920;-80
2022/04/18 17:04:40;;;;;;;;;;;;;;;16.15;29.09;98231.06;3222694;22;19924;-82
2022/04/18 17:05:55;;;;;;;;;;;;;;;15.89;29.25;98234.16;3223012;22;19923;-80
2022/04/18 17:07:11;;;;;;;;;;;;;;;15.71;29.53;98221.91;3223055;22;20499;-80
2022/04/18 17:08:27;;;;;;;;;;;;;;;16.04;29.32;98232.50;3222417;22;19931;-81
2022/04/18 17:09:42;;;;;;;;;;;;;;;15.60;29.68;98230.41;3223343;22;19923;-80
2022/04/18 17:10:58;;;;;;;;;;;;;;;15.67;29.95;98221.22;3222567;22;19928;-81
2022/04/18 17:12:13;;;;;;;;;;;;;;;15.82;29.97;98222.19;3222834;23;19923;-81
2022/04/18 17:13:29;;;;;;;;;;;;;;;15.30;30.46;98228.41;3223065;23;20006;-81
2022/04/18 17:14:44;;;;;;;;;;;;;;;15.10;30.90;98227.59;3222158;22;19923;-80
2022/04/18 17:16:00;;;;;;;;;;;;;;;14.80;31.91;98229.03;3221248;22;20599;-83
2022/04/18 17:17:15;;;;;;;;;;;;;;;14.63;32.18;98221.94;3221990;23;19923;-81
2022/04/18 17:18:31;;;;;;;;;;;;;;;14.73;31.53;98230.28;3222227;23;20003;-80
2022/04/18 17:19:46;;;;;;;;;;;;;;;14.69;32.12;98229.53;3222870;23;20129;-79
2022/04/18 17:21:02;;;;;;;;;;;;;;;14.54;32.28;98225.00;3222873;23;19923;-80
2022/04/18 17:22:17;;;;;;;;;;;;;;;14.41;32.32;98222.94;3222865;23;19923;-81
2022/04/18 17:23:32;;;;;;;;;;;;;;;14.25;32.10;98224.59;3222513;23;19939;-81
2022/04/18 17:24:48;;;;;;;;;;;;;;;14.09;32.67;98229.72;3222814;22;20014;-81
2022/04/18 17:26:04;;;;;;;;;;;;;;;13.97;33.29;98223.25;3222890;22;19998;-80
2022/04/18 17:27:20;;;;;;;;;;;;;;;14.11;33.12;98220.81;3222495;22;20335;-81
2022/04/18 17:28:35;;;;;;;;;;;;;;;13.95;33.01;98223.28;3223108;23;19923;-82
2022/04/18 17:29:50;;;;;;;;;;;;;;;13.90;33.08;98224.41;3222913;23;19931;-79
2022/04/18 17:31:06;;;;;;;;;;;;;;;13.96;32.85;98225.00;3222091;23;20362;-81
2022/04/18 17:32:21;;;;;;;;;;;;;;;14.04;31.95;98229.06;3222716;23;19929;-80
2022/04/18 17:33:37;;;;;;;;;;;;;;;13.94;32.39;98221.59;3222794;23;19930;-80
2022/04/18 17:34:52;;;;;;;;;;;;;;;13.59;32.77;98224.03;3222879;22;19999;-82
2022/04/18 17:36:08;;;;;;;;;;;;;;;13.26;33.83;98225.38;3220832;23;19934;-81
2022/04/18 17:37:24;;;;;;;;;;;;;;;12.93;33.78;98228.53;3222634;22;19928;-81
2022/04/18 17:38:39;;;;;;;;;;;;;;;12.59;34.76;98236.91;3222560;22;19925;-81
2022/04/18 17:39:56;;;;;;;;;;;;;;;12.42;35.32;98233.16;3222555;23;19926;-80
2022/04/18 17:41:11;;;;;;;;;;;;;;;12.15;35.51;98234.16;3222806;22;20013;-81
2022/04/18 17:42:27;;;;;;;;;;;;;;;12.05;35.90;98234.56;3222885;22;20255;-81
2022/04/18 17:43:43;;;;;;;;;;;;;;;11.92;36.69;98228.88;3223012;22;19974;-85
2022/04/18 17:44:58;;;;;;;;;;;;;;;11.57;37.57;98231.84;3222393;22;19958;-80
2022/04/18 17:46:14;;;;;;;;;;;;;;;11.43;37.33;98227.94;3222630;22;19954;-81
2022/04/18 17:47:31;;;;;;;;;;;;;;;11.25;38.39;98232.09;3222625;23;19937;-80
2022/04/18 17:48:48;;;;;;;;;;;;;;;10.99;38.79;98232.94;3222781;22;19924;-85
2022/04/18 17:50:04;;;;;;;;;;;;;;;10.93;38.11;98233.16;3222452;22;19926;-81
2022/04/18 17:51:20;;;;;;;;;;;;;;;10.86;39.16;98229.88;3223071;22;19930;-81
2022/04/18 17:52:38;;;;;;;;;;;;;;;10.80;38.90;98232.69;3222404;23;19924;-80
2022/04/18 17:57:01;;;;;;;;;;;;;;;10.46;40.52;98229.38;3220741;23;19919;-86
2022/04/18 17:58:17;;;;;;;;;;;;;;;10.43;40.10;98230.34;3222400;22;20334;-81
2022/04/18 17:59:32;;;;;;;;;;;;;;;10.47;40.05;98230.25;3222011;23;19923;-80
2022/04/18 18:00:48;;;;;;;;;;;;;;;10.43;39.94;98229.47;3222490;22;20428;-80
2022/04/18 18:02:03;;;;;;;;;;;;;;;10.20;41.48;98227.53;3222403;23;19986;-81
2022/04/18 18:03:20;;;;;;;;;;;;;;;10.03;41.10;98231.50;3222552;22;19919;-80
2022/04/18 18:04:36;;;;;;;;;;;;;;;9.92;41.14;98228.34;3222704;22;19923;-79
2022/04/18 18:05:52;;;;;;;;;;;;;;;10.01;40.65;98231.53;3222596;22;20317;-79
2022/04/18 18:07:09;;;;;;;;;;;;;;;9.99;41.06;98230.72;3222451;22;19923;-79
2022/04/18 18:08:25;;;;;;;;;;;;;;;10.02;40.62;98235.88;3222501;22;19977;-80
2022/04/18 18:09:40;;;;;;;;;;;;;;;9.82;41.33;98225.13;3222299;22;19923;-80
2022/04/18 18:10:55;;;;;;;;;;;;;;;9.69;42.35;98224.63;3222469;22;20464;-78
2022/04/18 18:12:11;;;;;;;;;;;;;;;9.61;41.82;98224.81;3222091;23;19931;-79
2022/04/18 18:13:27;;;;;;;;;;;;;;;9.46;43.26;98234.81;3222591;22;19977;-80
2022/04/18 18:14:43;;;;;;;;;;;;;;;9.37;44.45;98232.44;3222224;22;19924;-79
2022/04/18 18:16:01;;;;;;;;;;;;;;;9.28;44.26;98230.06;3222499;22;20290;-79
2022/04/18 18:17:16;;;;;;;;;;;;;;;9.13;44.83;98226.97;3222411;22;20305;-80
2022/04/18 18:18:32;;;;;;;;;;;;;;;8.84;45.42;98228.56;3222792;23;19923;-80
2022/04/18 18:19:47;;;;;;;;;;;;;;;8.82;45.59;98230.34;3222751;22;19949;-80
2022/04/18 18:21:03;;;;;;;;;;;;;;;8.81;46.13;98235.59;3222322;22;19924;-80
2022/04/18 18:22:19;;;;;;;;;;;;;;;8.73;47.16;98241.00;3222698;22;20032;-80
2022/04/18 18:23:35;;;;;;;;;;;;;;;8.62;46.69;98242.09;3222515;23;20361;-80
2022/04/18 18:24:50;;;;;;;;;;;;;;;8.64;46.74;98243.81;3222176;22;19924;-79
2022/04/18 18:26:05;;;;;;;;;;;;;;;8.48;47.05;98241.53;3222187;23;19923;-85
2022/04/18 18:27:21;;;;;;;;;;;;;;;8.18;47.63;98250.00;3222249;23;19923;-79
2022/04/18 18:28:36;;;;;;;;;;;;;;;8.11;47.92;98245.81;3222251;23;19927;-81
2022/04/18 18:29:52;;;;;;;;;;;;;;;8.05;48.16;98246.78;3221296;23;19923;-80
2022/04/18 18:31:07;;;;;;;;;;;;;;;8.06;48.19;98250.28;3221599;23;19978;-79
2022/04/18 18:32:22;;;;;;;;;;;;;;;8.04;48.27;98244.22;3221587;23;19923;-80
2022/04/18 18:33:38;;;;;;;;;;;;;;;8.00;48.14;98250.38;3212055;23;19931;-80
2022/04/18 18:34:53;;;;;;;;;;;;;;;7.98;48.16;98250.44;3221690;23;20020;-80
2022/04/18 18:36:09;;;;;;;;;;;;;;;7.95;48.21;98249.63;3221982;23;19974;-80
2022/04/18 18:37:27;;;;;;;;;;;;;;;7.94;48.67;98256.56;3222356;23;20335;-82
2022/04/18 18:38:42;;;;;;;;;;;;;;;7.94;49.20;98253.13;3222473;22;19923;-79
2022/04/18 18:39:58;;;;;;;;;;;;;;;7.89;49.22;98253.22;3222758;22;19930;-80
2022/04/18 18:41:14;;;;;;;;;;;;;;;7.80;49.60;98259.47;3222410;22;19924;-80
2022/04/18 18:42:29;;;;;;;;;;;;;;;7.77;49.63;98259.53;3222515;22;19930;-80
2022/04/18 18:43:45;;;;;;;;;;;;;;;7.59;50.35;98263.34;3222665;22;19924;-81
2022/04/18 18:45:00;;;;;;;;;;;;;;;7.47;50.68;98272.22;3222369;23;19931;-82
2022/04/18 18:46:15;;;;;;;;;;;;;;;7.35;51.04;98268.13;3222552;22;19969;-78
2022/04/18 18:47:31;;;;;;;;;;;;;;;7.18;51.27;98274.47;3222370;23;19923;-80
2022/04/18 18:48:46;;;;;;;;;;;;;;;7.13;51.12;98275.44;3222308;22;19949;-79
2022/04/18 18:53:11;;;;;;;;;;;;;;;7.01;52.10;98271.31;3227404;23;19927;-81
2022/04/18 18:54:26;;;;;;;;;;;;;;;6.95;52.11;98276.59;3221946;23;19923;-78
2022/04/18 18:55:45;;;;;;;;;;;;;;;6.81;52.52;98280.28;3221803;23;20369;-81
2022/04/18 18:57:00;;;;;;;;;;;;;;;6.84;52.35;98276.78;3221944;22;19923;-79
2022/04/18 18:58:17;;;;;;;;;;;;;;;6.85;52.42;98273.28;3222329;23;19924;-79
2022/04/18 18:59:32;;;;;;;;;;;;;;;6.75;52.54;98275.16;3222574;22;19930;-80
2022/04/18 19:00:48;;;;;;;;;;;;;;;6.62;52.97;98272.75;3222002;22;20356;-79
2022/04/18 19:02:03;;;;;;;;;;;;;;;6.54;53.39;98278.94;3222112;22;19969;-79
2022/04/18 19:03:21;;;;;;;;;;;;;;;6.43;53.66;98277.34;3221790;22;19925;-79
2022/04/18 19:04:36;;;;;;;;;;;;;;;6.35;53.96;98281.78;3221940;22;19924;-79
2022/04/18 19:05:52;;;;;;;;;;;;;;;6.32;54.14;98285.31;3221560;22;19924;-82
2022/04/18 19:07:07;;;;;;;;;;;;;;;6.22;54.04;98283.69;3221068;22;19923;-81
2022/04/18 19:08:23;;;;;;;;;;;;;;;6.24;53.81;98281.94;3222633;22;19975;-80
2022/04/18 19:09:39;;;;;;;;;;;;;;;6.24;53.82;98281.94;3222087;22;19999;-80
2022/04/18 19:10:57;;;;;;;;;;;;;;;6.15;55.01;98288.13;3221300;22;19920;-80
2022/04/18 19:12:13;;;;;;;;;;;;;;;6.16;54.40;98284.63;3220516;22;19924;-80
2022/04/18 19:13:29;;;;;;;;;;;;;;;6.16;53.77;98282.03;3221916;23;20343;-89
2022/04/18 19:14:45;;;;;;;;;;;;;;;6.21;54.00;98289.78;3222349;22;19923;-81
2022/04/18 19:16:00;;;;;;;;;;;;;;;6.16;53.59;98283.78;3222060;22;20296;-81
2022/04/18 19:26:42;;;;;;;;;;;;;;;5.61;55.64;98299.09;3227825;23;19976;-79
2022/04/18 19:27:57;;;;;;;;;;;;;;;5.54;55.88;98290.50;3222461;23;20356;-79
2022/04/18 19:29:13;;;;;;;;;;;;;;;5.36;56.67;98287.19;3222201;22;19977;-80
2022/04/18 19:30:28;;;;;;;;;;;;;;;5.26;56.64;98293.38;3221791;23;19927;-80
2022/04/18 19:31:44;;;;;;;;;;;;;;;5.21;57.03;98292.53;3222400;23;19926;-80
2022/04/18 19:32:59;;;;;;;;;;;;;;;5.14;57.47;98301.25;3222136;23;20289;-79
2022/04/18 19:34:17;;;;;;;;;;;;;;;5.01;58.58;98300.47;3222066;22;19924;-79
2022/04/18 19:35:36;;;;;;;;;;;;;;;4.95;57.83;98301.38;3221846;22;19924;-80
2022/04/18 19:36:54;;;;;;;;;;;;;;;4.95;58.19;98299.66;3227869;22;20609;-79
2022/04/18 19:38:10;;;;;;;;;;;;;;;4.89;58.65;98296.25;3222132;22;19923;-79
2022/04/18 19:39:25;;;;;;;;;;;;;;;4.93;58.25;98298.81;3222548;23;19930;-81
2022/04/18 19:40:41;;;;;;;;;;;;;;;4.92;58.07;98297.09;3222219;22;19923;-79
2022/04/18 19:41:56;;;;;;;;;;;;;;;4.97;57.56;98296.19;3221860;22;20008;-79
2022/04/18 19:43:12;;;;;;;;;;;;;;;5.03;57.36;98296.13;3222160;22;19931;-81
2022/04/18 19:44:28;;;;;;;;;;;;;;;5.05;57.69;98294.41;3221890;22;19927;-79
2022/04/18 19:45:43;;;;;;;;;;;;;;;5.09;57.37;98293.50;3222195;23;19924;-80
2022/04/18 19:46:59;;;;;;;;;;;;;;;5.07;57.53;98292.66;3222348;22;19927;-80
2022/04/18 19:48:14;;;;;;;;;;;;;;;5.04;57.75;98290.09;3222338;23;20621;-79
2022/04/18 19:49:30;;;;;;;;;;;;;;;5.01;57.31;98293.56;3221814;23;20492;-78
2022/04/18 19:50:48;;;;;;;;;;;;;;;4.97;57.61;98293.59;3222234;22;20699;-80
2022/04/18 19:52:07;;;;;;;;;;;;;;;4.92;57.64;98286.72;3222197;23;19923;-80
2022/04/18 19:53:22;;;;;;;;;;;;;;;4.87;57.71;98285.03;3222127;22;19923;-81
2022/04/18 19:54:38;;;;;;;;;;;;;;;4.85;57.90;98285.03;3222006;23;19939;-79
2022/04/18 19:55:54;;;;;;;;;;;;;;;4.76;58.31;98282.53;3221660;22;19923;-80
2022/04/18 19:57:09;;;;;;;;;;;;;;;4.77;58.18;98282.50;3222071;23;20338;-79
2022/04/18 19:58:27;;;;;;;;;;;;;;;4.72;58.30;98286.88;3222092;22;19934;-79
2022/04/18 19:59:42;;;;;;;;;;;;;;;4.72;58.41;98286.88;3222117;22;19935;-79
2022/04/18 20:00:57;;;;;;;;;;;;;;;4.58;58.74;98289.53;3222154;22;19924;-80
2022/04/18 20:02:13;;;;;;;;;;;;;;;4.54;58.94;98285.25;3222611;23;19931;-79
2022/04/18 20:03:30;;;;;;;;;;;;;;;4.46;59.28;98292.19;3222231;22;19999;-80
2022/04/18 20:04:45;;;;;;;;;;;;;;;4.42;59.33;98290.50;3222761;22;20445;-86
2022/04/18 20:06:01;;;;;;;;;;;;;;;4.43;59.06;98293.09;3222646;22;19973;-80
2022/04/18 20:07:16;;;;;;;;;;;;;;;4.40;59.03;98298.31;3222496;23;19930;-82
2022/04/18 20:08:32;;;;;;;;;;;;;;;4.41;59.16;98291.38;3222693;22;20348;-81
2022/04/18 20:09:47;;;;;;;;;;;;;;;4.37;59.55;98288.81;3222682;23;20025;-79
2022/04/18 20:11:03;;;;;;;;;;;;;;;4.19;59.90;98289.75;3222811;23;19923;-80
2022/04/18 20:12:18;;;;;;;;;;;;;;;4.18;59.72;98292.34;3222613;22;20390;-81
2022/04/18 20:13:35;;;;;;;;;;;;;;;4.02;60.17;98291.56;3222534;23;19930;-81
2022/04/18 20:14:50;;;;;;;;;;;;;;;3.98;60.42;98293.28;3222606;22;19950;-79
2022/04/18 20:16:10;;;;;;;;;;;;;;;3.95;60.78;98293.31;3222887;23;19924;-80
2022/04/18 20:17:28;;;;;;;;;;;;;;;3.93;60.75;98287.28;3222736;22;19923;-81
2022/04/18 20:18:44;;;;;;;;;;;;;;;3.89;61.48;98290.72;3222896;23;19950;-81
2022/04/18 20:19:59;;;;;;;;;;;;;;;3.87;61.14;98297.66;3222972;22;19923;-80
2022/04/18 20:21:15;;;;;;;;;;;;;;;3.75;61.80;98296.81;3222892;23;19998;-79
2022/04/18 20:22:30;;;;;;;;;;;;;;;3.66;62.12;98294.28;3223061;22;19993;-80
2022/04/18 20:23:47;;;;;;;;;;;;;;;3.62;62.31;98293.41;3223196;23;19924;-80
2022/04/18 20:25:02;;;;;;;;;;;;;;;3.56;62.79;98295.16;3222728;22;19927;-80
2022/04/18 20:26:18;;;;;;;;;;;;;;;3.52;62.58;98295.16;3222985;23;19924;-79
2022/04/18 20:27:33;;;;;;;;;;;;;;;3.50;62.28;98290.84;3222937;23;19924;-79
2022/04/18 20:28:51;;;;;;;;;;;;;;;3.43;63.34;98296.91;3223415;23;19962;-79
2022/04/18 20:30:07;;;;;;;;;;;;;;;3.35;63.52;98295.19;3222605;22;19919;-80
2022/04/18 20:31:23;;;;;;;;;;;;;;;3.30;63.72;98290.88;3223195;22;20602;-80
2022/04/18 20:32:38;;;;;;;;;;;;;;;3.35;63.75;98294.31;3222683;22;19924;-81
2022/04/18 20:33:53;;;;;;;;;;;;;;;3.39;63.32;98288.28;3222979;23;20057;-80
2022/04/18 20:35:09;;;;;;;;;;;;;;;3.45;63.71;98288.25;3222630;23;19923;-82
2022/04/18 20:36:24;;;;;;;;;;;;;;;3.62;63.64;98290.81;3222178;23;19985;-80
2022/04/18 20:37:40;;;;;;;;;;;;;;;3.60;63.84;98292.56;3222882;22;19924;-84
2022/04/18 20:38:55;;;;;;;;;;;;;;;3.58;63.66;98285.66;3222762;23;19953;-79
2022/04/18 20:40:11;;;;;;;;;;;;;;;3.55;63.40;98285.66;3222672;23;19998;-81
2022/04/18 20:41:27;;;;;;;;;;;;;;;3.55;63.41;98280.47;3223085;22;19923;-79
2022/04/18 20:42:43;;;;;;;;;;;;;;;3.57;63.07;98279.63;3222599;22;19946;-80
2022/04/18 20:43:59;;;;;;;;;;;;;;;3.67;62.94;98289.06;3223263;22;20322;-80
2022/04/18 20:45:14;;;;;;;;;;;;;;;3.70;62.63;98285.63;3222757;22;20238;-82
2022/04/18 20:46:30;;;;;;;;;;;;;;;3.64;62.72;98283.91;3222731;22;19924;-80
2022/04/18 20:47:46;;;;;;;;;;;;;;;3.62;63.04;98277.88;3223052;22;20361;-81
2022/04/18 20:49:01;;;;;;;;;;;;;;;3.61;63.39;98283.03;3222735;22;19923;-81
2022/04/18 20:50:17;;;;;;;;;;;;;;;3.59;62.77;98287.38;3222708;22;19966;-80
2022/04/18 20:51:32;;;;;;;;;;;;;;;3.57;63.31;98283.94;3222889;23;20218;-81
2022/04/18 20:59:07;;;;;;;;;;;;;;;3.20;64.98;98285.69;3222954;22;19924;-86
2022/04/18 21:00:23;;;;;;;;;;;;;;;3.19;64.42;98283.13;3222745;22;19991;-80
2022/04/18 21:01:38;;;;;;;;;;;;;;;3.25;64.16;98277.94;3222379;22;20240;-80
2022/04/18 21:02:54;;;;;;;;;;;;;;;3.29;64.82;98273.63;3223145;23;20001;-80
2022/04/18 21:04:09;;;;;;;;;;;;;;;3.32;64.47;98276.19;3222953;23;19954;-80
2022/04/18 21:05:27;;;;;;;;;;;;;;;3.22;64.69;98272.78;3222758;22;20258;-80
2022/04/18 21:06:44;;;;;;;;;;;;;;;3.26;64.18;98271.88;3222882;22;19930;-79
2022/04/18 21:07:59;;;;;;;;;;;;;;;3.31;64.47;98269.31;3222917;22;20308;-81
2022/04/18 21:09:15;;;;;;;;;;;;;;;3.34;64.49;98272.75;3223200;23;19957;-80
2022/04/18 21:10:31;;;;;;;;;;;;;;;3.32;64.34;98276.19;3222790;22;20269;-83
2022/04/18 21:11:46;;;;;;;;;;;;;;;3.32;65.21;98273.63;3223090;22;19975;-80
2022/04/18 21:13:03;;;;;;;;;;;;;;;3.19;66.18;98270.19;3222971;22;19930;-80
2022/04/18 21:14:20;;;;;;;;;;;;;;;3.14;66.19;98270.19;3223027;22;20091;-80
2022/04/18 21:15:35;;;;;;;;;;;;;;;3.11;65.96;98276.22;3222952;22;19924;-80
2022/04/18 21:16:51;;;;;;;;;;;;;;;3.14;66.22;98269.31;3223159;22;19941;-80
2022/04/18 21:18:06;;;;;;;;;;;;;;;3.11;66.60;98271.03;3222483;23;19927;-79
2022/04/18 21:19:22;;;;;;;;;;;;;;;3.13;66.21;98276.22;3222559;22;20420;-80
2022/04/18 21:20:41;;;;;;;;;;;;;;;3.14;66.08;98270.19;3222786;23;19995;-80
2022/04/18 21:21:56;;;;;;;;;;;;;;;3.16;66.06;98273.63;3222814;22;19919;-80
2022/04/18 21:23:12;;;;;;;;;;;;;;;3.12;66.38;98271.91;3222593;23;20670;-80
2022/04/18 21:24:28;;;;;;;;;;;;;;;3.13;66.03;98275.34;3223086;22;19923;-82
2022/04/18 21:25:43;;;;;;;;;;;;;;;3.06;66.78;98264.16;3222939;23;19923;-81
2022/04/18 21:26:59;;;;;;;;;;;;;;;3.06;66.71;98266.72;3222782;23;19954;-80
2022/04/18 21:28:15;;;;;;;;;;;;;;;3.05;67.24;98268.47;3222742;23;19994;-80
2022/04/18 21:29:30;;;;;;;;;;;;;;;3.05;67.01;98268.47;3222226;23;19924;-79
2022/04/18 21:30:45;;;;;;;;;;;;;;;3.06;67.07;98272.78;3222354;23;19973;-81
2022/04/18 21:32:01;;;;;;;;;;;;;;;3.09;66.90;98269.34;3222739;22;19923;-79
2022/04/18 21:33:16;;;;;;;;;;;;;;;3.11;67.02;98273.63;3222694;23;20258;-80
2022/04/18 21:34:32;;;;;;;;;;;;;;;3.18;66.64;98268.47;3224003;22;20433;-80
2022/04/18 21:35:47;;;;;;;;;;;;;;;3.29;65.64;98271.03;3223421;22;20354;-79
2022/04/18 21:37:04;;;;;;;;;;;;;;;3.33;66.14;98272.75;3223732;23;20006;-80
2022/04/18 21:38:19;;;;;;;;;;;;;;;3.32;65.44;98268.44;3224129;22;19951;-80
2022/04/18 21:39:35;;;;;;;;;;;;;;;3.39;65.03;98268.41;3223764;23;20258;-83
2022/04/18 21:40:50;;;;;;;;;;;;;;;3.37;65.45;98267.56;3223729;23;20006;-84
2022/04/18 21:42:06;;;;;;;;;;;;;;;3.36;65.32;98267.59;3223723;23;19930;-79
2022/04/18 21:43:21;;;;;;;;;;;;;;;3.31;66.51;98266.72;3223917;22;20240;-79